F/V Fleur Des Vagues — FPEJ — position and weather

sailwx.info

Track history (hours):
 
Tides and Currents Weather Stations Pressure Air Temp Water Temp Dewpoint Dewpoint Depression Visibility Wind Speed Wind Dir Waves Ship Positions

F/V Fleur Des Vagues

Last reported at 2017-Oct-18 12:52 UTC. Time now 2017-Oct-23 00:47 UTC.
Position N 46°30' W 001°47'.

Length 16 m.

Type: Fishing. MMSI: 227893000.

Date/timePositionNaut miles runAvg speedWind from/ knotsBaromVisibWave heightAir tempDewpointWater temp
2017-Oct-18 12:52N 46°30' W 001°47'0 0.4
2017-Oct-18 12:30N 46°30' W 001°47'0 0.0
2017-Oct-18 12:00N 46°30' W 001°47'0 0.0
2017-Oct-18 11:30N 46°30' W 001°47'0 0.0
2017-Oct-18 11:00N 46°30' W 001°47'1 2.8
2017-Oct-18 10:30N 46°29' W 001°47'4 8.8
2017-Oct-18 10:00N 46°25' W 001°52'5 9.0
2017-Oct-18 09:30N 46°22' W 001°56'4 8.3
2017-Oct-18 09:00N 46°19' W 002°00'2 0.2
2017-Oct-17 23:50N 46°18' W 002°02'3 8.1
2017-Oct-17 23:30N 46°20' W 001°60'4 8.1
2017-Oct-17 23:00N 46°23' W 001°56'4 8.0
2017-Oct-17 22:30N 46°25' W 001°52'4 8.0
2017-Oct-17 22:00N 46°28' W 001°47'2 3.2
2017-Oct-17 21:28N 46°30' W 001°47'0 0.0
2017-Oct-17 20:58N 46°30' W 001°47'0 0.0
2017-Oct-17 20:28N 46°30' W 001°47'0 0.0
2017-Oct-17 19:58N 46°30' W 001°47'0 0.0
2017-Oct-17 19:28N 46°30' W 001°47'0 0.0
2017-Oct-17 18:58N 46°30' W 001°47'0 0.0
2017-Oct-17 18:28N 46°30' W 001°47'0 0.0
2017-Oct-17 17:58N 46°30' W 001°47'0 0.0
2017-Oct-17 17:28N 46°30' W 001°47'0 0.0
2017-Oct-17 16:58N 46°30' W 001°47'0 0.0
2017-Oct-17 16:28N 46°30' W 001°47'0 0.0
2017-Oct-17 15:58N 46°30' W 001°47'0 0.0
2017-Oct-17 15:28N 46°30' W 001°47'0 0.0
2017-Oct-17 14:58N 46°30' W 001°47'0 0.0
2017-Oct-17 14:28N 46°30' W 001°47'0 0.0
2017-Oct-17 13:58N 46°30' W 001°47'0 0.0
2017-Oct-17 13:28N 46°30' W 001°47'0 0.0
2017-Oct-17 12:58N 46°30' W 001°47'0 0.0
2017-Oct-17 12:28N 46°30' W 001°47'1 1.5
2017-Oct-17 12:00N 46°29' W 001°47'4 8.6
2017-Oct-17 11:30N 46°26' W 001°51'5 9.2
2017-Oct-17 11:00N 46°22' W 001°56'7 9.4
2017-Oct-17 10:15N 46°17' W 002°02'3 9.3
2017-Oct-17 09:56N 46°15' W 002°06'4 9.3
2017-Oct-17 09:30N 46°12' W 002°09'3 0.4
2017-Oct-17 02:20N 46°15' W 002°08'2 1.5
2017-Oct-17 00:54N 46°13' W 002°08'2 0.8
2017-Oct-16 22:41N 46°14' W 002°08'0 0.2
2017-Oct-16 21:54N 46°14' W 002°07'10 0.6
2017-Oct-16 05:58N 46°23' W 002°15'0 0.1
2017-Oct-16 04:10N 46°23' W 002°15'1 2.3
2017-Oct-16 03:45N 46°22' W 002°14'0 0.4
2017-Oct-16 02:53N 46°22' W 002°14'1 1.8
2017-Oct-16 02:30N 46°23' W 002°15'1 1.1
2017-Oct-16 02:00N 46°22' W 002°14'1 0.7
2017-Oct-16 00:25N 46°23' W 002°15'0 0.1
2017-Oct-15 22:50N 46°23' W 002°15'1 0.3
2017-Oct-15 20:52N 46°23' W 002°15'0 0.0
2017-Oct-15 20:10N 46°23' W 002°15'0 0.0
2017-Oct-15 19:43N 46°23' W 002°15'0 0.0
2017-Oct-15 16:58N 46°23' W 002°15'0 0.0
2017-Oct-15 16:25N 46°23' W 002°15'0 0.0
2017-Oct-15 15:52N 46°23' W 002°15'0 0.1
2017-Oct-15 15:28N 46°23' W 002°15'0 0.0
2017-Oct-15 14:58N 46°23' W 002°15'0 0.1
2017-Oct-15 12:56N 46°23' W 002°14'2 4.5
2017-Oct-15 12:30N 46°22' W 002°13'2 3.3
2017-Oct-15 11:57N 46°23' W 002°15'2 5.2
2017-Oct-15 11:30N 46°21' W 002°13'0 0.5
2017-Oct-15 10:48N 46°21' W 002°14'2 5.9
2017-Oct-15 10:27N 46°22' W 002°11'3 7.9
2017-Oct-15 10:00N 46°23' W 002°06'4 8.0
2017-Oct-15 09:30N 46°24' W 002°00'4 8.0
2017-Oct-15 09:00N 46°25' W 001°55'4 8.1
2017-Oct-15 08:30N 46°27' W 001°49'2 4.5
2017-Oct-15 07:58N 46°26' W 001°46'1 1.6
2017-Oct-15 07:28N 46°27' W 001°47'1 1.6
2017-Oct-15 06:58N 46°27' W 001°48'1 1.1
2017-Oct-15 06:30N 46°27' W 001°47'1 2.1
2017-Oct-15 06:00N 46°26' W 001°46'1 1.3
2017-Oct-15 05:30N 46°27' W 001°47'1 1.4
2017-Oct-15 05:00N 46°27' W 001°47'0 0.9
2017-Oct-15 04:30N 46°27' W 001°47'1 1.3
2017-Oct-15 03:59N 46°26' W 001°46'1 1.6
2017-Oct-15 03:28N 46°27' W 001°47'1 1.7
2017-Oct-15 02:59N 46°27' W 001°48'1 1.2
2017-Oct-15 02:30N 46°27' W 001°47'2 3.0
2017-Oct-15 02:00N 46°26' W 001°46'1 1.6
2017-Oct-15 01:30N 46°27' W 001°46'1 1.7
2017-Oct-15 00:58N 46°27' W 001°47'1 3.2
2017-Oct-15 00:30N 46°29' W 001°47'1 2.3
2017-Oct-15 00:00N 46°30' W 001°47'0 0.0
2017-Oct-14 23:30N 46°30' W 001°47'0 0.0
2017-Oct-14 23:00N 46°30' W 001°47'0 0.0
2017-Oct-14 22:30N 46°30' W 001°47'0 0.0
2017-Oct-14 22:00N 46°30' W 001°47'0 0.0
2017-Oct-14 21:30N 46°30' W 001°47'0 0.0
2017-Oct-14 21:00N 46°30' W 001°47'0 0.0
2017-Oct-14 20:30N 46°30' W 001°47'0 0.0
2017-Oct-14 20:00N 46°30' W 001°47'0 0.0
2017-Oct-14 19:30N 46°30' W 001°47'0 0.0
2017-Oct-14 19:00N 46°30' W 001°47'0 0.0
2017-Oct-14 18:30N 46°30' W 001°47'0 0.0
2017-Oct-14 18:00N 46°30' W 001°47'0 0.0
2017-Oct-14 17:30N 46°30' W 001°47'0 0.0
2017-Oct-14 17:00N 46°30' W 001°47'0 0.0
2017-Oct-14 16:30N 46°30' W 001°47'0 0.0
2017-Oct-14 16:00N 46°30' W 001°47'0 0.0
2017-Oct-14 15:30N 46°30' W 001°47'0 0.0
2017-Oct-14 15:00N 46°30' W 001°47'0 0.0
2017-Oct-14 14:30N 46°30' W 001°47'0 0.0
2017-Oct-14 14:00N 46°30' W 001°47'0 0.0
2017-Oct-14 13:30N 46°30' W 001°47'0 0.0
2017-Oct-14 13:00N 46°30' W 001°47'0 0.0
2017-Oct-14 12:30N 46°30' W 001°47'0 0.0
2017-Oct-14 12:00N 46°30' W 001°47'0 0.0
2017-Oct-14 11:30N 46°30' W 001°47'0 0.0
2017-Oct-14 11:00N 46°30' W 001°47'0 0.6
2017-Oct-14 10:31N 46°30' W 001°48'4 8.2
2017-Oct-14 10:00N 46°26' W 001°45'2 3.1
2017-Oct-14 09:31N 46°27' W 001°47'1 1.2
2017-Oct-14 09:01N 46°27' W 001°48'0 0.5
2017-Oct-14 08:30N 46°27' W 001°47'1 1.8
2017-Oct-14 08:00N 46°26' W 001°47'1 1.9
2017-Oct-14 07:30N 46°26' W 001°46'2 4.1
2017-Oct-14 06:59N 46°27' W 001°48'1 1.9
2017-Oct-14 06:28N 46°27' W 001°47'1 1.9
2017-Oct-14 05:58N 46°26' W 001°46'0 0.7
2017-Oct-14 05:30N 46°26' W 001°46'1 1.7
2017-Oct-14 05:01N 46°26' W 001°47'1 1.5
2017-Oct-14 04:30N 46°27' W 001°47'1 1.5
2017-Oct-14 04:00N 46°28' W 001°48'1 2.0
2017-Oct-14 03:30N 46°27' W 001°47'1 1.8
2017-Oct-14 03:00N 46°26' W 001°46'0 0.7
2017-Oct-14 02:30N 46°26' W 001°45'1 1.5
2017-Oct-14 02:00N 46°27' W 001°46'1 1.2
2017-Oct-14 01:30N 46°27' W 001°47'0 1.0
2017-Oct-14 01:00N 46°27' W 001°47'0 0.9
2017-Oct-14 00:30N 46°28' W 001°47'2 3.9
2017-Oct-13 23:59N 46°30' W 001°47'0 0.0
2017-Oct-13 23:29N 46°30' W 001°47'0 0.0
2017-Oct-13 22:59N 46°30' W 001°47'0 0.0
2017-Oct-13 22:29N 46°30' W 001°47'0 0.0
2017-Oct-13 21:59N 46°30' W 001°47'0 0.0
2017-Oct-13 21:29N 46°30' W 001°47'0 0.0
2017-Oct-13 20:59N 46°30' W 001°47'0 0.0
2017-Oct-13 20:29N 46°30' W 001°47'0 0.0
2017-Oct-13 19:59N 46°30' W 001°47'0 0.0
2017-Oct-13 19:29N 46°30' W 001°47'0 0.0
2017-Oct-13 18:59N 46°30' W 001°47'0 0.0
2017-Oct-13 18:29N 46°30' W 001°47'0 0.0
2017-Oct-13 17:59N 46°30' W 001°47'0 0.0
2017-Oct-13 17:29N 46°30' W 001°47'0 0.0
2017-Oct-13 16:59N 46°30' W 001°47'0 0.0
2017-Oct-13 16:29N 46°30' W 001°47'0 0.0
2017-Oct-13 15:59N 46°30' W 001°47'0 0.0
2017-Oct-13 15:29N 46°30' W 001°47'0 0.0
2017-Oct-13 14:59N 46°30' W 001°47'0 0.0
2017-Oct-13 14:29N 46°30' W 001°47'0 0.0
2017-Oct-13 13:59N 46°30' W 001°47'0 0.0
2017-Oct-13 13:29N 46°30' W 001°47'0 0.0
2017-Oct-13 12:59N 46°30' W 001°47'0 0.0
2017-Oct-13 12:29N 46°30' W 001°47'0 0.0
2017-Oct-13 11:59N 46°30' W 001°47'0 0.0
2017-Oct-13 11:29N 46°30' W 001°47'0 0.0
2017-Oct-13 10:59N 46°30' W 001°47'2 4.5
2017-Oct-13 10:30N 46°28' W 001°48'1 2.8
2017-Oct-13 10:01N 46°27' W 001°47'1 1.7
2017-Oct-13 09:29N 46°27' W 001°48'1 1.5
2017-Oct-13 08:59N 46°27' W 001°47'1 1.4
2017-Oct-13 08:29N 46°26' W 001°46'1 1.5
2017-Oct-13 08:00N 46°26' W 001°45'2 4.1
2017-Oct-13 07:28N 46°27' W 001°48'1 1.3
2017-Oct-13 07:00N 46°27' W 001°47'1 1.6
2017-Oct-13 06:30N 46°26' W 001°46'1 1.8
2017-Oct-13 06:01N 46°26' W 001°45'2 4.7
2017-Oct-13 05:30N 46°27' W 001°48'1 2.2
2017-Oct-13 05:00N 46°27' W 001°47'1 2.0
2017-Oct-13 04:30N 46°26' W 001°46'1 2.7
2017-Oct-13 04:00N 46°27' W 001°47'1 1.1
2017-Oct-13 03:30N 46°27' W 001°48'1 1.8
2017-Oct-13 02:59N 46°27' W 001°47'1 1.6
2017-Oct-13 02:29N 46°26' W 001°46'0 0.4
2017-Oct-13 01:59N 46°26' W 001°46'1 1.4
2017-Oct-13 01:29N 46°27' W 001°47'1 1.3
2017-Oct-13 00:59N 46°27' W 001°47'1 1.3
2017-Oct-13 00:30N 46°28' W 001°47'2 4.0
2017-Oct-12 23:58N 46°30' W 001°47'0 0.0
2017-Oct-12 23:28N 46°30' W 001°47'0 0.0
2017-Oct-12 22:58N 46°30' W 001°47'0 0.0
2017-Oct-12 22:28N 46°30' W 001°47'0 0.0
2017-Oct-12 21:58N 46°30' W 001°47'0 0.0
2017-Oct-12 21:28N 46°30' W 001°47'0 0.0
2017-Oct-12 20:58N 46°30' W 001°47'0 0.0
2017-Oct-12 20:28N 46°30' W 001°47'0 0.0
2017-Oct-12 19:58N 46°30' W 001°47'0 0.0
2017-Oct-12 19:28N 46°30' W 001°47'0 0.0
2017-Oct-12 18:58N 46°30' W 001°47'0 0.0
2017-Oct-12 18:28N 46°30' W 001°47'0 0.0
2017-Oct-12 17:58N 46°30' W 001°47'0 0.0
2017-Oct-12 17:28N 46°30' W 001°47'0 0.0
2017-Oct-12 16:58N 46°30' W 001°47'0 0.0
2017-Oct-12 16:28N 46°30' W 001°47'0 0.0
2017-Oct-12 15:58N 46°30' W 001°47'0 0.0
2017-Oct-12 15:28N 46°30' W 001°47'0 0.0
2017-Oct-12 14:58N 46°30' W 001°47'0 0.0
2017-Oct-12 14:28N 46°30' W 001°47'0 0.0
2017-Oct-12 13:58N 46°30' W 001°47'0 0.0
2017-Oct-12 13:28N 46°30' W 001°47'0 0.0
2017-Oct-12 12:58N 46°30' W 001°47'0 0.0
2017-Oct-12 12:28N 46°30' W 001°47'0 0.0
2017-Oct-12 11:55N 46°30' W 001°47'0 0.0
2017-Oct-12 11:28N 46°30' W 001°47'0 0.0
2017-Oct-12 10:58N 46°30' W 001°47'0 0.0
2017-Oct-12 10:28N 46°30' W 001°47'0 0.0
2017-Oct-12 09:58N 46°30' W 001°47'0 0.0
2017-Oct-12 09:30N 46°30' W 001°47'3 5.9
2017-Oct-12 09:00N 46°27' W 001°47'1 1.9
2017-Oct-12 08:30N 46°27' W 001°48'1 2.9
2017-Oct-12 08:00N 46°27' W 001°46'1 1.9
2017-Oct-12 07:30N 46°26' W 001°46'1 1.8
2017-Oct-12 07:00N 46°26' W 001°47'1 1.7
2017-Oct-12 06:30N 46°27' W 001°47'1 1.5
2017-Oct-12 06:00N 46°28' W 001°48'1 1.5
2017-Oct-12 05:30N 46°27' W 001°48'1 1.9
2017-Oct-12 05:00N 46°26' W 001°47'1 1.6
2017-Oct-12 04:30N 46°26' W 001°45'1 1.3
2017-Oct-12 04:00N 46°26' W 001°46'1 1.5
2017-Oct-12 03:30N 46°27' W 001°47'1 1.7
2017-Oct-12 03:00N 46°28' W 001°48'0 0.8
2017-Oct-12 02:30N 46°27' W 001°48'1 1.8
2017-Oct-12 02:00N 46°26' W 001°47'1 1.1
2017-Oct-12 01:29N 46°26' W 001°47'1 1.6
2017-Oct-12 00:58N 46°26' W 001°48'1 1.5
2017-Oct-12 00:28N 46°27' W 001°48'1 2.1
2017-Oct-12 00:00N 46°28' W 001°48'2 4.3
2017-Oct-11 23:31N 46°30' W 001°47'0 0.0
2017-Oct-11 23:01N 46°30' W 001°47'0 0.0
2017-Oct-11 22:30N 46°30' W 001°47'0 0.0
2017-Oct-11 22:01N 46°30' W 001°47'0 0.0
2017-Oct-11 21:31N 46°30' W 001°47'0 0.0
2017-Oct-11 20:58N 46°30' W 001°47'0 0.0
2017-Oct-11 20:30N 46°30' W 001°47'0 0.0
2017-Oct-11 20:01N 46°30' W 001°47'0 0.0
2017-Oct-11 19:30N 46°30' W 001°47'0 0.0
2017-Oct-11 18:57N 46°30' W 001°47'0 0.0
2017-Oct-11 18:31N 46°30' W 001°47'0 0.0
2017-Oct-11 18:01N 46°30' W 001°47'0 0.0
2017-Oct-11 17:30N 46°30' W 001°47'0 0.0
2017-Oct-11 17:01N 46°30' W 001°47'0 0.0
2017-Oct-11 00:00N 46°30' W 001°47'0 0.0
2017-Oct-10 23:30N 46°30' W 001°47'0 0.0
2017-Oct-10 23:00N 46°30' W 001°47'0 0.0
2017-Oct-10 22:30N 46°30' W 001°47'0 0.0
2017-Oct-10 22:00N 46°30' W 001°47'0 0.0
2017-Oct-10 21:30N 46°30' W 001°47'0 0.0
2017-Oct-10 21:00N 46°30' W 001°47'0 0.0
2017-Oct-10 20:30N 46°30' W 001°47'0 0.0
2017-Oct-10 20:00N 46°30' W 001°47'0 0.0
2017-Oct-10 19:30N 46°30' W 001°47'0 0.0
2017-Oct-10 19:00N 46°30' W 001°47'0 0.0
2017-Oct-10 18:30N 46°30' W 001°47'0 0.0
2017-Oct-10 18:00N 46°30' W 001°47'0 0.0
2017-Oct-10 17:30N 46°30' W 001°47'0 0.0
2017-Oct-10 17:00N 46°30' W 001°47'0 0.0
2017-Oct-10 16:30N 46°30' W 001°47'0 0.0
2017-Oct-10 16:00N 46°30' W 001°47'0 0.0
2017-Oct-10 15:30N 46°30' W 001°47'0 0.0
2017-Oct-10 15:00N 46°30' W 001°47'0 0.0
2017-Oct-10 14:00N 46°30' W 001°47'0 0.0
2017-Oct-10 13:30N 46°30' W 001°47'0 0.0
2017-Oct-10 13:00N 46°30' W 001°47'0 0.0
2017-Oct-10 12:30N 46°30' W 001°47'0 0.0
2017-Oct-10 12:00N 46°30' W 001°47'0 0.0
2017-Oct-10 11:30N 46°30' W 001°47'0 0.0
2017-Oct-10 11:00N 46°30' W 001°47'0 0.0
2017-Oct-10 10:30N 46°30' W 001°47'0 0.0
2017-Oct-10 10:00N 46°30' W 001°47'0 0.0
2017-Oct-10 09:30N 46°30' W 001°47'3 6.0
2017-Oct-10 09:00N 46°27' W 001°48'1 2.2
2017-Oct-10 08:30N 46°28' W 001°49'1 1.9
2017-Oct-10 08:01N 46°27' W 001°49'1 2.0
2017-Oct-10 07:30N 46°26' W 001°48'1 1.0
2017-Oct-10 07:00N 46°26' W 001°47'2 3.3
2017-Oct-10 06:31N 46°27' W 001°49'1 2.1
2017-Oct-10 06:00N 46°27' W 001°48'1 1.5
2017-Oct-10 05:30N 46°26' W 001°47'2 3.8
2017-Oct-10 05:00N 46°27' W 001°49'1 1.6
2017-Oct-10 04:29N 46°27' W 001°48'1 1.6
2017-Oct-10 03:58N 46°26' W 001°47'0 1.0
2017-Oct-10 03:30N 46°26' W 001°47'2 3.9
2017-Oct-10 02:59N 46°28' W 001°49'1 2.1
2017-Oct-10 02:29N 46°27' W 001°47'1 2.1
2017-Oct-10 02:01N 46°26' W 001°47'1 2.6
2017-Oct-10 01:28N 46°27' W 001°48'1 1.8
2017-Oct-10 00:59N 46°26' W 001°47'3 6.7
2017-Oct-10 00:30N 46°29' W 001°47'1 1.3
2017-Oct-09 23:58N 46°30' W 001°47'0 0.0
2017-Oct-09 23:28N 46°30' W 001°47'0 0.0
2017-Oct-09 22:58N 46°30' W 001°47'0 0.0
2017-Oct-09 22:28N 46°30' W 001°47'0 0.0
2017-Oct-09 21:58N 46°30' W 001°47'0 0.0
2017-Oct-09 21:28N 46°30' W 001°47'0 0.0
2017-Oct-09 20:58N 46°30' W 001°47'0 0.0
2017-Oct-09 20:28N 46°30' W 001°47'0 0.0
2017-Oct-09 19:58N 46°30' W 001°47'0 0.0
2017-Oct-09 19:28N 46°30' W 001°47'0 0.0
2017-Oct-09 18:58N 46°30' W 001°47'0 0.0
2017-Oct-09 18:28N 46°30' W 001°47'0 0.0
2017-Oct-09 17:58N 46°30' W 001°47'0 0.0
2017-Oct-09 17:28N 46°30' W 001°47'0 0.0
2017-Oct-09 16:58N 46°30' W 001°47'0 0.0
2017-Oct-09 16:28N 46°30' W 001°47'0 0.0
2017-Oct-09 15:58N 46°30' W 001°47'0 0.0
2017-Oct-09 15:28N 46°30' W 001°47'0 0.0
2017-Oct-09 14:58N 46°30' W 001°47'0 0.0
2017-Oct-09 14:28N 46°30' W 001°47'0 0.0
2017-Oct-09 13:58N 46°30' W 001°47'0 0.0
2017-Oct-09 13:28N 46°30' W 001°47'0 0.0
2017-Oct-09 12:58N 46°30' W 001°47'0 0.0
2017-Oct-09 12:28N 46°30' W 001°47'0 0.0
2017-Oct-09 11:58N 46°30' W 001°47'0 0.0
2017-Oct-09 11:28N 46°30' W 001°47'0 0.0
2017-Oct-09 10:58N 46°30' W 001°47'0 0.0
2017-Oct-09 10:28N 46°30' W 001°47'3 1.1
2017-Oct-09 07:49N 46°27' W 001°49'1 4.0
2017-Oct-09 07:30N 46°26' W 001°48'1 2.6
2017-Oct-09 07:00N 46°27' W 001°49'1 1.5
2017-Oct-09 06:29N 46°27' W 001°48'1 1.0
2017-Oct-09 05:59N 46°26' W 001°48'1 1.2
2017-Oct-09 05:29N 46°26' W 001°47'1 1.7
2017-Oct-09 05:00N 46°27' W 001°48'1 1.1
2017-Oct-09 04:29N 46°27' W 001°48'0 0.6
2017-Oct-09 03:59N 46°27' W 001°48'1 1.3
2017-Oct-09 03:29N 46°27' W 001°48'1 1.2
2017-Oct-09 02:59N 46°26' W 001°47'1 1.2
2017-Oct-09 02:29N 46°26' W 001°47'1 2.6
2017-Oct-09 02:00N 46°27' W 001°48'0 0.8
2017-Oct-09 01:29N 46°26' W 001°48'1 1.2
2017-Oct-09 01:00N 46°26' W 001°47'4 7.2
2017-Oct-09 00:30N 46°30' W 001°48'0 0.8
2017-Oct-08 23:58N 46°30' W 001°47'0 0.0
2017-Oct-08 23:28N 46°30' W 001°47'0 0.0
2017-Oct-08 22:58N 46°30' W 001°47'0 0.0
2017-Oct-08 22:28N 46°30' W 001°47'0 0.0
2017-Oct-08 21:58N 46°30' W 001°47'0 0.0
2017-Oct-08 21:28N 46°30' W 001°47'0 0.0
2017-Oct-08 20:58N 46°30' W 001°47'0 0.0
2017-Oct-08 20:28N 46°30' W 001°47'0 0.0
2017-Oct-08 19:58N 46°30' W 001°47'0 0.0
2017-Oct-08 19:28N 46°30' W 001°47'0 0.0
2017-Oct-08 18:58N 46°30' W 001°47'0 0.0
2017-Oct-08 18:28N 46°30' W 001°47'0 0.0
2017-Oct-08 17:58N 46°30' W 001°47'0 0.0
2017-Oct-08 17:28N 46°30' W 001°47'0 0.0
2017-Oct-08 16:58N 46°30' W 001°47'0 0.0
2017-Oct-08 16:28N 46°30' W 001°47'0 0.0
2017-Oct-08 15:58N 46°30' W 001°47'0 0.0
2017-Oct-08 15:28N 46°30' W 001°47'0 0.0
2017-Oct-08 14:58N 46°30' W 001°47'0 0.0
2017-Oct-08 14:28N 46°30' W 001°47'0 0.0
2017-Oct-08 13:58N 46°30' W 001°47'0 0.0
2017-Oct-08 13:28N 46°30' W 001°47'0 0.0
2017-Oct-08 12:58N 46°30' W 001°47'  
Track history (hours):
 
Tides and Currents Weather Stations Pressure Air Temp Water Temp Dewpoint Dewpoint Depression Visibility Wind Speed Wind Dir Waves Ship Positions

F/V Fleur Des Vagues

Last reported at 2017-Oct-18 12:52 UTC. Time now 2017-Oct-23 00:47 UTC.
Position N 46°30' W 001°47'.

Length 16 m.

Type: Fishing. MMSI: 227893000.

Date/timePositionNaut miles runAvg speedWind from/ knotsBaromVisibWave heightAir tempDewpointWater temp
2017-Oct-18 12:52N 46°30' W 001°47'0 0.4
2017-Oct-18 12:30N 46°30' W 001°47'0 0.0
2017-Oct-18 12:00N 46°30' W 001°47'0 0.0
2017-Oct-18 11:30N 46°30' W 001°47'0 0.0
2017-Oct-18 11:00N 46°30' W 001°47'1 2.8
2017-Oct-18 10:30N 46°29' W 001°47'4 8.8
2017-Oct-18 10:00N 46°25' W 001°52'5 9.0
2017-Oct-18 09:30N 46°22' W 001°56'4 8.3
2017-Oct-18 09:00N 46°19' W 002°00'2 0.2
2017-Oct-17 23:50N 46°18' W 002°02'3 8.1
2017-Oct-17 23:30N 46°20' W 001°60'4 8.1
2017-Oct-17 23:00N 46°23' W 001°56'4 8.0
2017-Oct-17 22:30N 46°25' W 001°52'4 8.0
2017-Oct-17 22:00N 46°28' W 001°47'2 3.2
2017-Oct-17 21:28N 46°30' W 001°47'0 0.0
2017-Oct-17 20:58N 46°30' W 001°47'0 0.0
2017-Oct-17 20:28N 46°30' W 001°47'0 0.0
2017-Oct-17 19:58N 46°30' W 001°47'0 0.0
2017-Oct-17 19:28N 46°30' W 001°47'0 0.0
2017-Oct-17 18:58N 46°30' W 001°47'0 0.0
2017-Oct-17 18:28N 46°30' W 001°47'0 0.0
2017-Oct-17 17:58N 46°30' W 001°47'0 0.0
2017-Oct-17 17:28N 46°30' W 001°47'0 0.0
2017-Oct-17 16:58N 46°30' W 001°47'0 0.0
2017-Oct-17 16:28N 46°30' W 001°47'0 0.0
2017-Oct-17 15:58N 46°30' W 001°47'0 0.0
2017-Oct-17 15:28N 46°30' W 001°47'0 0.0
2017-Oct-17 14:58N 46°30' W 001°47'0 0.0
2017-Oct-17 14:28N 46°30' W 001°47'0 0.0
2017-Oct-17 13:58N 46°30' W 001°47'0 0.0
2017-Oct-17 13:28N 46°30' W 001°47'0 0.0
2017-Oct-17 12:58N 46°30' W 001°47'0 0.0
2017-Oct-17 12:28N 46°30' W 001°47'1 1.5
2017-Oct-17 12:00N 46°29' W 001°47'4 8.6
2017-Oct-17 11:30N 46°26' W 001°51'5 9.2
2017-Oct-17 11:00N 46°22' W 001°56'7 9.4
2017-Oct-17 10:15N 46°17' W 002°02'3 9.3
2017-Oct-17 09:56N 46°15' W 002°06'4 9.3
2017-Oct-17 09:30N 46°12' W 002°09'3 0.4
2017-Oct-17 02:20N 46°15' W 002°08'2 1.5
2017-Oct-17 00:54N 46°13' W 002°08'2 0.8
2017-Oct-16 22:41N 46°14' W 002°08'0 0.2
2017-Oct-16 21:54N 46°14' W 002°07'10 0.6
2017-Oct-16 05:58N 46°23' W 002°15'0 0.1
2017-Oct-16 04:10N 46°23' W 002°15'1 2.3
2017-Oct-16 03:45N 46°22' W 002°14'0 0.4
2017-Oct-16 02:53N 46°22' W 002°14'1 1.8
2017-Oct-16 02:30N 46°23' W 002°15'1 1.1
2017-Oct-16 02:00N 46°22' W 002°14'1 0.7
2017-Oct-16 00:25N 46°23' W 002°15'0 0.1
2017-Oct-15 22:50N 46°23' W 002°15'1 0.3
2017-Oct-15 20:52N 46°23' W 002°15'0 0.0
2017-Oct-15 20:10N 46°23' W 002°15'0 0.0
2017-Oct-15 19:43N 46°23' W 002°15'0 0.0
2017-Oct-15 16:58N 46°23' W 002°15'0 0.0
2017-Oct-15 16:25N 46°23' W 002°15'0 0.0
2017-Oct-15 15:52N 46°23' W 002°15'0 0.1
2017-Oct-15 15:28N 46°23' W 002°15'0 0.0
2017-Oct-15 14:58N 46°23' W 002°15'0 0.1
2017-Oct-15 12:56N 46°23' W 002°14'2 4.5
2017-Oct-15 12:30N 46°22' W 002°13'2 3.3
2017-Oct-15 11:57N 46°23' W 002°15'2 5.2
2017-Oct-15 11:30N 46°21' W 002°13'0 0.5
2017-Oct-15 10:48N 46°21' W 002°14'2 5.9
2017-Oct-15 10:27N 46°22' W 002°11'3 7.9
2017-Oct-15 10:00N 46°23' W 002°06'4 8.0
2017-Oct-15 09:30N 46°24' W 002°00'4 8.0
2017-Oct-15 09:00N 46°25' W 001°55'4 8.1
2017-Oct-15 08:30N 46°27' W 001°49'2 4.5
2017-Oct-15 07:58N 46°26' W 001°46'1 1.6
2017-Oct-15 07:28N 46°27' W 001°47'1 1.6
2017-Oct-15 06:58N 46°27' W 001°48'1 1.1
2017-Oct-15 06:30N 46°27' W 001°47'1 2.1
2017-Oct-15 06:00N 46°26' W 001°46'1 1.3
2017-Oct-15 05:30N 46°27' W 001°47'1 1.4
2017-Oct-15 05:00N 46°27' W 001°47'0 0.9
2017-Oct-15 04:30N 46°27' W 001°47'1 1.3
2017-Oct-15 03:59N 46°26' W 001°46'1 1.6
2017-Oct-15 03:28N 46°27' W 001°47'1 1.7
2017-Oct-15 02:59N 46°27' W 001°48'1 1.2
2017-Oct-15 02:30N 46°27' W 001°47'2 3.0
2017-Oct-15 02:00N 46°26' W 001°46'1 1.6
2017-Oct-15 01:30N 46°27' W 001°46'1 1.7
2017-Oct-15 00:58N 46°27' W 001°47'1 3.2
2017-Oct-15 00:30N 46°29' W 001°47'1 2.3
2017-Oct-15 00:00N 46°30' W 001°47'0 0.0
2017-Oct-14 23:30N 46°30' W 001°47'0 0.0
2017-Oct-14 23:00N 46°30' W 001°47'0 0.0
2017-Oct-14 22:30N 46°30' W 001°47'0 0.0
2017-Oct-14 22:00N 46°30' W 001°47'0 0.0
2017-Oct-14 21:30N 46°30' W 001°47'0 0.0
2017-Oct-14 21:00N 46°30' W 001°47'0 0.0
2017-Oct-14 20:30N 46°30' W 001°47'0 0.0
2017-Oct-14 20:00N 46°30' W 001°47'0 0.0
2017-Oct-14 19:30N 46°30' W 001°47'0 0.0
2017-Oct-14 19:00N 46°30' W 001°47'0 0.0
2017-Oct-14 18:30N 46°30' W 001°47'0 0.0
2017-Oct-14 18:00N 46°30' W 001°47'0 0.0
2017-Oct-14 17:30N 46°30' W 001°47'0 0.0
2017-Oct-14 17:00N 46°30' W 001°47'0 0.0
2017-Oct-14 16:30N 46°30' W 001°47'0 0.0
2017-Oct-14 16:00N 46°30' W 001°47'0 0.0
2017-Oct-14 15:30N 46°30' W 001°47'0 0.0
2017-Oct-14 15:00N 46°30' W 001°47'0 0.0
2017-Oct-14 14:30N 46°30' W 001°47'0 0.0
2017-Oct-14 14:00N 46°30' W 001°47'0 0.0
2017-Oct-14 13:30N 46°30' W 001°47'0 0.0
2017-Oct-14 13:00N 46°30' W 001°47'0 0.0
2017-Oct-14 12:30N 46°30' W 001°47'0 0.0
2017-Oct-14 12:00N 46°30' W 001°47'0 0.0
2017-Oct-14 11:30N 46°30' W 001°47'0 0.0
2017-Oct-14 11:00N 46°30' W 001°47'0 0.6
2017-Oct-14 10:31N 46°30' W 001°48'4 8.2
2017-Oct-14 10:00N 46°26' W 001°45'2 3.1
2017-Oct-14 09:31N 46°27' W 001°47'1 1.2
2017-Oct-14 09:01N 46°27' W 001°48'0 0.5
2017-Oct-14 08:30N 46°27' W 001°47'1 1.8
2017-Oct-14 08:00N 46°26' W 001°47'1 1.9
2017-Oct-14 07:30N 46°26' W 001°46'2 4.1
2017-Oct-14 06:59N 46°27' W 001°48'1 1.9
2017-Oct-14 06:28N 46°27' W 001°47'1 1.9
2017-Oct-14 05:58N 46°26' W 001°46'0 0.7
2017-Oct-14 05:30N 46°26' W 001°46'1 1.7
2017-Oct-14 05:01N 46°26' W 001°47'1 1.5
2017-Oct-14 04:30N 46°27' W 001°47'1 1.5
2017-Oct-14 04:00N 46°28' W 001°48'1 2.0
2017-Oct-14 03:30N 46°27' W 001°47'1 1.8
2017-Oct-14 03:00N 46°26' W 001°46'0 0.7
2017-Oct-14 02:30N 46°26' W 001°45'1 1.5
2017-Oct-14 02:00N 46°27' W 001°46'1 1.2
2017-Oct-14 01:30N 46°27' W 001°47'0 1.0
2017-Oct-14 01:00N 46°27' W 001°47'0 0.9
2017-Oct-14 00:30N 46°28' W 001°47'2 3.9
2017-Oct-13 23:59N 46°30' W 001°47'0 0.0
2017-Oct-13 23:29N 46°30' W 001°47'0 0.0
2017-Oct-13 22:59N 46°30' W 001°47'0 0.0
2017-Oct-13 22:29N 46°30' W 001°47'0 0.0
2017-Oct-13 21:59N 46°30' W 001°47'0 0.0
2017-Oct-13 21:29N 46°30' W 001°47'0 0.0
2017-Oct-13 20:59N 46°30' W 001°47'0 0.0
2017-Oct-13 20:29N 46°30' W 001°47'0 0.0
2017-Oct-13 19:59N 46°30' W 001°47'0 0.0
2017-Oct-13 19:29N 46°30' W 001°47'0 0.0
2017-Oct-13 18:59N 46°30' W 001°47'0 0.0
2017-Oct-13 18:29N 46°30' W 001°47'0 0.0
2017-Oct-13 17:59N 46°30' W 001°47'0 0.0
2017-Oct-13 17:29N 46°30' W 001°47'0 0.0
2017-Oct-13 16:59N 46°30' W 001°47'0 0.0
2017-Oct-13 16:29N 46°30' W 001°47'0 0.0
2017-Oct-13 15:59N 46°30' W 001°47'0 0.0
2017-Oct-13 15:29N 46°30' W 001°47'0 0.0
2017-Oct-13 14:59N 46°30' W 001°47'0 0.0
2017-Oct-13 14:29N 46°30' W 001°47'0 0.0
2017-Oct-13 13:59N 46°30' W 001°47'0 0.0
2017-Oct-13 13:29N 46°30' W 001°47'0 0.0
2017-Oct-13 12:59N 46°30' W 001°47'0 0.0
2017-Oct-13 12:29N 46°30' W 001°47'0 0.0
2017-Oct-13 11:59N 46°30' W 001°47'0 0.0
2017-Oct-13 11:29N 46°30' W 001°47'0 0.0
2017-Oct-13 10:59N 46°30' W 001°47'2 4.5
2017-Oct-13 10:30N 46°28' W 001°48'1 2.8
2017-Oct-13 10:01N 46°27' W 001°47'1 1.7
2017-Oct-13 09:29N 46°27' W 001°48'1 1.5
2017-Oct-13 08:59N 46°27' W 001°47'1 1.4
2017-Oct-13 08:29N 46°26' W 001°46'1 1.5
2017-Oct-13 08:00N 46°26' W 001°45'2 4.1
2017-Oct-13 07:28N 46°27' W 001°48'1 1.3
2017-Oct-13 07:00N 46°27' W 001°47'1 1.6
2017-Oct-13 06:30N 46°26' W 001°46'1 1.8
2017-Oct-13 06:01N 46°26' W 001°45'2 4.7
2017-Oct-13 05:30N 46°27' W 001°48'1 2.2
2017-Oct-13 05:00N 46°27' W 001°47'1 2.0
2017-Oct-13 04:30N 46°26' W 001°46'1 2.7
2017-Oct-13 04:00N 46°27' W 001°47'1 1.1
2017-Oct-13 03:30N 46°27' W 001°48'1 1.8
2017-Oct-13 02:59N 46°27' W 001°47'1 1.6
2017-Oct-13 02:29N 46°26' W 001°46'0 0.4
2017-Oct-13 01:59N 46°26' W 001°46'1 1.4
2017-Oct-13 01:29N 46°27' W 001°47'1 1.3
2017-Oct-13 00:59N 46°27' W 001°47'1 1.3
2017-Oct-13 00:30N 46°28' W 001°47'2 4.0
2017-Oct-12 23:58N 46°30' W 001°47'0 0.0
2017-Oct-12 23:28N 46°30' W 001°47'0 0.0
2017-Oct-12 22:58N 46°30' W 001°47'0 0.0
2017-Oct-12 22:28N 46°30' W 001°47'0 0.0
2017-Oct-12 21:58N 46°30' W 001°47'0 0.0
2017-Oct-12 21:28N 46°30' W 001°47'0 0.0
2017-Oct-12 20:58N 46°30' W 001°47'0 0.0
2017-Oct-12 20:28N 46°30' W 001°47'0 0.0
2017-Oct-12 19:58N 46°30' W 001°47'0 0.0
2017-Oct-12 19:28N 46°30' W 001°47'0 0.0
2017-Oct-12 18:58N 46°30' W 001°47'0 0.0
2017-Oct-12 18:28N 46°30' W 001°47'0 0.0
2017-Oct-12 17:58N 46°30' W 001°47'0 0.0
2017-Oct-12 17:28N 46°30' W 001°47'0 0.0
2017-Oct-12 16:58N 46°30' W 001°47'0 0.0
2017-Oct-12 16:28N 46°30' W 001°47'0 0.0
2017-Oct-12 15:58N 46°30' W 001°47'0 0.0
2017-Oct-12 15:28N 46°30' W 001°47'0 0.0
2017-Oct-12 14:58N 46°30' W 001°47'0 0.0
2017-Oct-12 14:28N 46°30' W 001°47'0 0.0
2017-Oct-12 13:58N 46°30' W 001°47'0 0.0
2017-Oct-12 13:28N 46°30' W 001°47'0 0.0
2017-Oct-12 12:58N 46°30' W 001°47'0 0.0
2017-Oct-12 12:28N 46°30' W 001°47'0 0.0
2017-Oct-12 11:55N 46°30' W 001°47'0 0.0
2017-Oct-12 11:28N 46°30' W 001°47'0 0.0
2017-Oct-12 10:58N 46°30' W 001°47'0 0.0
2017-Oct-12 10:28N 46°30' W 001°47'0 0.0
2017-Oct-12 09:58N 46°30' W 001°47'0 0.0
2017-Oct-12 09:30N 46°30' W 001°47'3 5.9
2017-Oct-12 09:00N 46°27' W 001°47'1 1.9
2017-Oct-12 08:30N 46°27' W 001°48'1 2.9
2017-Oct-12 08:00N 46°27' W 001°46'1 1.9
2017-Oct-12 07:30N 46°26' W 001°46'1 1.8
2017-Oct-12 07:00N 46°26' W 001°47'1 1.7
2017-Oct-12 06:30N 46°27' W 001°47'1 1.5
2017-Oct-12 06:00N 46°28' W 001°48'1 1.5
2017-Oct-12 05:30N 46°27' W 001°48'1 1.9
2017-Oct-12 05:00N 46°26' W 001°47'1 1.6
2017-Oct-12 04:30N 46°26' W 001°45'1 1.3
2017-Oct-12 04:00N 46°26' W 001°46'1 1.5
2017-Oct-12 03:30N 46°27' W 001°47'1 1.7
2017-Oct-12 03:00N 46°28' W 001°48'0 0.8
2017-Oct-12 02:30N 46°27' W 001°48'1 1.8
2017-Oct-12 02:00N 46°26' W 001°47'1 1.1
2017-Oct-12 01:29N 46°26' W 001°47'1 1.6
2017-Oct-12 00:58N 46°26' W 001°48'1 1.5
2017-Oct-12 00:28N 46°27' W 001°48'1 2.1
2017-Oct-12 00:00N 46°28' W 001°48'2 4.3
2017-Oct-11 23:31N 46°30' W 001°47'0 0.0
2017-Oct-11 23:01N 46°30' W 001°47'0 0.0
2017-Oct-11 22:30N 46°30' W 001°47'0 0.0
2017-Oct-11 22:01N 46°30' W 001°47'0 0.0
2017-Oct-11 21:31N 46°30' W 001°47'0 0.0
2017-Oct-11 20:58N 46°30' W 001°47'0 0.0
2017-Oct-11 20:30N 46°30' W 001°47'0 0.0
2017-Oct-11 20:01N 46°30' W 001°47'0 0.0
2017-Oct-11 19:30N 46°30' W 001°47'0 0.0
2017-Oct-11 18:57N 46°30' W 001°47'0 0.0
2017-Oct-11 18:31N 46°30' W 001°47'0 0.0
2017-Oct-11 18:01N 46°30' W 001°47'0 0.0
2017-Oct-11 17:30N 46°30' W 001°47'0 0.0
2017-Oct-11 17:01N 46°30' W 001°47'0 0.0
2017-Oct-11 00:00N 46°30' W 001°47'0 0.0
2017-Oct-10 23:30N 46°30' W 001°47'0 0.0
2017-Oct-10 23:00N 46°30' W 001°47'0 0.0
2017-Oct-10 22:30N 46°30' W 001°47'0 0.0
2017-Oct-10 22:00N 46°30' W 001°47'0 0.0
2017-Oct-10 21:30N 46°30' W 001°47'0 0.0
2017-Oct-10 21:00N 46°30' W 001°47'0 0.0
2017-Oct-10 20:30N 46°30' W 001°47'0 0.0
2017-Oct-10 20:00N 46°30' W 001°47'0 0.0
2017-Oct-10 19:30N 46°30' W 001°47'0 0.0
2017-Oct-10 19:00N 46°30' W 001°47'0 0.0
2017-Oct-10 18:30N 46°30' W 001°47'0 0.0
2017-Oct-10 18:00N 46°30' W 001°47'0 0.0
2017-Oct-10 17:30N 46°30' W 001°47'0 0.0
2017-Oct-10 17:00N 46°30' W 001°47'0 0.0
2017-Oct-10 16:30N 46°30' W 001°47'0 0.0
2017-Oct-10 16:00N 46°30' W 001°47'0 0.0
2017-Oct-10 15:30N 46°30' W 001°47'0 0.0
2017-Oct-10 15:00N 46°30' W 001°47'0 0.0
2017-Oct-10 14:00N 46°30' W 001°47'0 0.0
2017-Oct-10 13:30N 46°30' W 001°47'0 0.0
2017-Oct-10 13:00N 46°30' W 001°47'0 0.0
2017-Oct-10 12:30N 46°30' W 001°47'0 0.0
2017-Oct-10 12:00N 46°30' W 001°47'0 0.0
2017-Oct-10 11:30N 46°30' W 001°47'0 0.0
2017-Oct-10 11:00N 46°30' W 001°47'0 0.0
2017-Oct-10 10:30N 46°30' W 001°47'0 0.0
2017-Oct-10 10:00N 46°30' W 001°47'0 0.0
2017-Oct-10 09:30N 46°30' W 001°47'3 6.0
2017-Oct-10 09:00N 46°27' W 001°48'1 2.2
2017-Oct-10 08:30N 46°28' W 001°49'1 1.9
2017-Oct-10 08:01N 46°27' W 001°49'1 2.0
2017-Oct-10 07:30N 46°26' W 001°48'1 1.0
2017-Oct-10 07:00N 46°26' W 001°47'2 3.3
2017-Oct-10 06:31N 46°27' W 001°49'1 2.1
2017-Oct-10 06:00N 46°27' W 001°48'1 1.5
2017-Oct-10 05:30N 46°26' W 001°47'2 3.8
2017-Oct-10 05:00N 46°27' W 001°49'1 1.6
2017-Oct-10 04:29N 46°27' W 001°48'1 1.6
2017-Oct-10 03:58N 46°26' W 001°47'0 1.0
2017-Oct-10 03:30N 46°26' W 001°47'2 3.9
2017-Oct-10 02:59N 46°28' W 001°49'1 2.1
2017-Oct-10 02:29N 46°27' W 001°47'1 2.1
2017-Oct-10 02:01N 46°26' W 001°47'1 2.6
2017-Oct-10 01:28N 46°27' W 001°48'1 1.8
2017-Oct-10 00:59N 46°26' W 001°47'3 6.7
2017-Oct-10 00:30N 46°29' W 001°47'1 1.3
2017-Oct-09 23:58N 46°30' W 001°47'0 0.0
2017-Oct-09 23:28N 46°30' W 001°47'0 0.0
2017-Oct-09 22:58N 46°30' W 001°47'0 0.0
2017-Oct-09 22:28N 46°30' W 001°47'0 0.0
2017-Oct-09 21:58N 46°30' W 001°47'0 0.0
2017-Oct-09 21:28N 46°30' W 001°47'0 0.0
2017-Oct-09 20:58N 46°30' W 001°47'0 0.0
2017-Oct-09 20:28N 46°30' W 001°47'0 0.0
2017-Oct-09 19:58N 46°30' W 001°47'0 0.0
2017-Oct-09 19:28N 46°30' W 001°47'0 0.0
2017-Oct-09 18:58N 46°30' W 001°47'0 0.0
2017-Oct-09 18:28N 46°30' W 001°47'0 0.0
2017-Oct-09 17:58N 46°30' W 001°47'0 0.0
2017-Oct-09 17:28N 46°30' W 001°47'0 0.0
2017-Oct-09 16:58N 46°30' W 001°47'0 0.0
2017-Oct-09 16:28N 46°30' W 001°47'0 0.0
2017-Oct-09 15:58N 46°30' W 001°47'0 0.0
2017-Oct-09 15:28N 46°30' W 001°47'0 0.0
2017-Oct-09 14:58N 46°30' W 001°47'0 0.0
2017-Oct-09 14:28N 46°30' W 001°47'0 0.0
2017-Oct-09 13:58N 46°30' W 001°47'0 0.0
2017-Oct-09 13:28N 46°30' W 001°47'0 0.0
2017-Oct-09 12:58N 46°30' W 001°47'0 0.0
2017-Oct-09 12:28N 46°30' W 001°47'0 0.0
2017-Oct-09 11:58N 46°30' W 001°47'0 0.0
2017-Oct-09 11:28N 46°30' W 001°47'0 0.0
2017-Oct-09 10:58N 46°30' W 001°47'0 0.0
2017-Oct-09 10:28N 46°30' W 001°47'3 1.1
2017-Oct-09 07:49N 46°27' W 001°49'1 4.0
2017-Oct-09 07:30N 46°26' W 001°48'1 2.6
2017-Oct-09 07:00N 46°27' W 001°49'1 1.5
2017-Oct-09 06:29N 46°27' W 001°48'1 1.0
2017-Oct-09 05:59N 46°26' W 001°48'1 1.2
2017-Oct-09 05:29N 46°26' W 001°47'1 1.7
2017-Oct-09 05:00N 46°27' W 001°48'1 1.1
2017-Oct-09 04:29N 46°27' W 001°48'0 0.6
2017-Oct-09 03:59N 46°27' W 001°48'1 1.3
2017-Oct-09 03:29N 46°27' W 001°48'1 1.2
2017-Oct-09 02:59N 46°26' W 001°47'1 1.2
2017-Oct-09 02:29N 46°26' W 001°47'1 2.6
2017-Oct-09 02:00N 46°27' W 001°48'0 0.8
2017-Oct-09 01:29N 46°26' W 001°48'1 1.2
2017-Oct-09 01:00N 46°26' W 001°47'4 7.2
2017-Oct-09 00:30N 46°30' W 001°48'0 0.8
2017-Oct-08 23:58N 46°30' W 001°47'0 0.0
2017-Oct-08 23:28N 46°30' W 001°47'0 0.0
2017-Oct-08 22:58N 46°30' W 001°47'0 0.0
2017-Oct-08 22:28N 46°30' W 001°47'0 0.0
2017-Oct-08 21:58N 46°30' W 001°47'0 0.0
2017-Oct-08 21:28N 46°30' W 001°47'0 0.0
2017-Oct-08 20:58N 46°30' W 001°47'0 0.0
2017-Oct-08 20:28N 46°30' W 001°47'0 0.0
2017-Oct-08 19:58N 46°30' W 001°47'0 0.0
2017-Oct-08 19:28N 46°30' W 001°47'0 0.0
2017-Oct-08 18:58N 46°30' W 001°47'0 0.0
2017-Oct-08 18:28N 46°30' W 001°47'0 0.0
2017-Oct-08 17:58N 46°30' W 001°47'0 0.0
2017-Oct-08 17:28N 46°30' W 001°47'0 0.0
2017-Oct-08 16:58N 46°30' W 001°47'0 0.0
2017-Oct-08 16:28N 46°30' W 001°47'0 0.0
2017-Oct-08 15:58N 46°30' W 001°47'0 0.0
2017-Oct-08 15:28N 46°30' W 001°47'0 0.0
2017-Oct-08 14:58N 46°30' W 001°47'0 0.0
2017-Oct-08 14:28N 46°30' W 001°47'0 0.0
2017-Oct-08 13:58N 46°30' W 001°47'0 0.0
2017-Oct-08 13:28N 46°30' W 001°47'0 0.0
2017-Oct-08 12:58N 46°30' W 001°47'  

Dump ship's entire track history